createdAt,value
2022-10-07T00:00:53.182Z,99629.88
2022-10-07T00:03:22.442Z,99624.94
2022-10-07T00:06:11.296Z,99663.34
2022-10-07T00:08:39.803Z,99504.38
2022-10-07T00:11:09.915Z,99587.00
2022-10-07T00:13:38.941Z,99591.41
2022-10-07T00:16:08.559Z,99593.72
2022-10-07T00:18:36.869Z,99503.06
2022-10-07T00:21:06.051Z,99489.34
2022-10-07T00:23:33.423Z,99457.72
2022-10-07T00:26:05.398Z,99624.78
2022-10-07T00:28:33.124Z,99514.56
2022-10-07T00:31:02.175Z,99604.81
2022-10-07T00:33:34.634Z,99477.69
2022-10-07T00:36:01.755Z,99452.19
2022-10-07T00:38:28.577Z,99605.25
2022-10-07T00:40:55.446Z,99451.13
2022-10-07T00:43:26.450Z,99453.34
2022-10-07T00:45:57.922Z,99446.69
2022-10-07T00:48:29.274Z,99619.34
2022-10-07T00:50:59.406Z,99555.38
2022-10-07T00:53:30.342Z,99517.66
2022-10-07T00:56:01.631Z,99608.84
2022-10-07T00:58:34.578Z,99475.91
2022-10-07T01:01:02.202Z,99638.47
2022-10-07T01:03:29.846Z,99596.75
2022-10-07T01:05:56.735Z,99611.22
2022-10-07T01:08:24.055Z,99534.28
2022-10-07T01:10:57.207Z,99618.00
2022-10-07T01:13:32.459Z,99570.31
2022-10-07T01:16:06.270Z,99612.41
2022-10-07T01:18:33.402Z,99642.41
2022-10-07T01:21:10.388Z,99561.59
2022-10-07T01:24:02.849Z,99602.34
2022-10-07T01:26:46.327Z,99476.31
2022-10-07T01:29:34.898Z,99595.06
2022-10-07T01:32:09.325Z,99564.06
2022-10-07T01:34:38.634Z,99425.13
2022-10-07T01:37:08.459Z,99520.13
2022-10-07T01:39:42.269Z,99607.50
2022-10-07T01:42:09.576Z,99433.16
2022-10-07T01:44:37.494Z,99623.56
2022-10-07T01:47:04.677Z,99601.69
2022-10-07T01:49:31.639Z,99463.94
2022-10-07T01:52:26.390Z,99511.31
2022-10-07T01:55:23.800Z,99443.53
2022-10-07T01:58:12.672Z,99576.03
2022-10-07T02:00:51.119Z,99611.69
2022-10-07T02:03:29.066Z,99606.81
2022-10-07T02:06:18.997Z,99637.81
2022-10-07T02:08:50.879Z,99606.63
2022-10-07T02:11:27.655Z,99446.66
2022-10-07T02:14:15.409Z,99617.00
2022-10-07T02:16:46.851Z,99626.44
2022-10-07T02:19:36.027Z,99445.34
2022-10-07T02:22:04.082Z,99618.22
2022-10-07T02:24:35.533Z,99618.28
2022-10-07T02:27:12.007Z,99486.13
2022-10-07T02:29:42.882Z,99606.25
2022-10-07T02:32:18.816Z,99606.25
2022-10-07T02:34:51.961Z,99635.22
2022-10-07T02:37:25.732Z,99442.16
2022-10-07T02:39:54.812Z,99592.56
2022-10-07T02:42:39.331Z,99588.53
2022-10-07T02:45:13.461Z,99602.22
2022-10-07T02:47:48.163Z,99447.53
2022-10-07T02:50:22.494Z,99639.50
2022-10-07T02:52:52.782Z,99498.84
2022-10-07T02:55:23.809Z,99450.28
2022-10-07T02:57:54.686Z,99588.16
2022-10-07T03:00:23.389Z,99573.72
2022-10-07T03:02:59.183Z,99649.75
2022-10-07T03:05:34.753Z,99651.22
2022-10-07T03:08:07.929Z,99459.66
2022-10-07T03:10:36.470Z,99473.16
2022-10-07T03:13:05.021Z,99509.84
2022-10-07T03:15:41.812Z,99652.69
2022-10-07T03:18:26.585Z,99514.25
2022-10-07T03:21:00.338Z,99614.06
2022-10-07T03:23:29.503Z,99481.94
2022-10-07T03:25:58.951Z,99686.19
2022-10-07T03:28:28.452Z,99623.28
2022-10-07T03:31:04.756Z,99624.56
2022-10-07T03:33:31.817Z,99652.63
2022-10-07T03:35:59.116Z,99648.88
2022-10-07T03:38:25.971Z,99669.28
2022-10-07T03:40:52.881Z,99676.31
2022-10-07T03:43:19.934Z,99665.19
2022-10-07T03:45:51.114Z,99652.78
2022-10-07T03:48:18.574Z,99663.38
2022-10-07T03:50:53.581Z,99687.84
2022-10-07T03:53:23.694Z,99473.56
2022-10-07T03:55:50.605Z,99664.91
2022-10-07T03:58:17.632Z,99521.28
2022-10-07T04:00:45.665Z,99487.53
2022-10-07T04:03:14.375Z,99499.00
2022-10-07T04:05:41.964Z,99607.38
2022-10-07T04:08:11.956Z,99668.59
2022-10-07T04:10:39.014Z,99684.00
2022-10-07T04:13:05.883Z,99603.38
2022-10-07T04:15:32.896Z,99446.69
2022-10-07T04:18:00.026Z,99643.38
2022-10-07T04:20:29.485Z,99663.94
2022-10-07T04:22:56.467Z,99640.63
2022-10-07T04:25:35.534Z,99644.97
2022-10-07T04:28:16.073Z,99651.97
2022-10-07T04:30:45.230Z,99650.19
2022-10-07T04:33:14.014Z,99668.34
2022-10-07T04:35:41.375Z,99497.41
2022-10-07T04:38:10.655Z,99512.41
2022-10-07T04:40:41.582Z,99677.28
2022-10-07T04:43:20.322Z,99661.25
2022-10-07T04:45:54.685Z,99597.94
2022-10-07T04:48:23.973Z,99449.72
2022-10-07T04:50:54.086Z,99634.31
2022-10-07T04:53:22.808Z,99678.59
2022-10-07T04:55:54.637Z,99689.78
2022-10-07T04:58:23.984Z,99524.22
2022-10-07T05:00:53.217Z,99616.16
2022-10-07T05:03:25.206Z,99693.13
2022-10-07T05:05:55.434Z,99677.19
2022-10-07T05:08:25.100Z,99656.72
2022-10-07T05:10:57.845Z,99674.16
2022-10-07T05:13:27.682Z,99524.53
2022-10-07T05:16:01.035Z,99446.72
2022-10-07T05:18:29.810Z,99708.72
2022-10-07T05:21:04.459Z,99668.00
2022-10-07T05:23:31.615Z,99652.53
2022-10-07T05:26:11.065Z,99685.78
2022-10-07T05:28:45.623Z,99686.50
2022-10-07T05:31:15.947Z,99652.59
2022-10-07T05:33:49.545Z,99579.88
2022-10-07T05:36:20.039Z,99639.19
2022-10-07T05:38:47.801Z,99710.88
2022-10-07T05:41:14.930Z,99554.38
2022-10-07T05:43:43.502Z,99707.66
2022-10-07T05:46:16.906Z,99554.38
2022-10-07T05:48:51.311Z,99671.88
2022-10-07T05:51:21.674Z,99592.53
2022-10-07T05:53:53.144Z,99557.13
2022-10-07T05:56:24.064Z,99639.06
2022-10-07T05:58:53.794Z,99670.97
2022-10-07T06:01:22.742Z,99708.53
2022-10-07T06:03:54.513Z,99706.56
2022-10-07T06:06:25.439Z,99666.78
2022-10-07T06:08:54.767Z,99721.91
2022-10-07T06:11:40.269Z,99678.50
2022-10-07T06:14:07.416Z,99720.19
2022-10-07T06:16:34.396Z,99737.09
2022-10-07T06:19:01.579Z,99724.19
2022-10-07T06:21:31.342Z,99542.63
2022-10-07T06:24:01.800Z,99698.97
2022-10-07T06:26:33.975Z,99741.69
2022-10-07T06:29:04.689Z,99726.88
2022-10-07T06:31:32.530Z,99663.56
2022-10-07T06:34:03.318Z,99547.16
2022-10-07T06:36:31.760Z,99662.81
2022-10-07T06:38:59.621Z,99691.94
2022-10-07T06:41:32.292Z,99687.13
2022-10-07T06:44:09.011Z,99562.38
2022-10-07T06:46:36.018Z,99739.50
2022-10-07T06:49:03.980Z,99751.53
2022-10-07T06:51:30.893Z,99740.06
2022-10-07T06:53:58.142Z,99728.75
2022-10-07T06:56:26.588Z,99738.78
2022-10-07T06:58:53.646Z,99735.81
2022-10-07T07:01:30.632Z,99554.50
2022-10-07T07:03:58.669Z,99728.78
2022-10-07T07:06:26.241Z,99719.66
2022-10-07T07:08:55.961Z,99684.97
2022-10-07T07:11:38.287Z,99755.88
2022-10-07T07:14:12.734Z,99546.09
2022-10-07T07:16:42.289Z,99553.66
2022-10-07T07:19:12.037Z,99619.38
2022-10-07T07:21:41.129Z,99720.25
2022-10-07T07:24:11.420Z,99723.13
2022-10-07T07:26:40.440Z,99721.06
2022-10-07T07:29:12.032Z,99738.59
2022-10-07T07:31:44.919Z,99554.97
2022-10-07T07:34:14.330Z,99688.06
2022-10-07T07:36:48.105Z,99576.44
2022-10-07T07:39:17.960Z,99709.91
2022-10-07T07:41:51.026Z,99742.03
2022-10-07T07:44:20.536Z,99712.84
2022-10-07T07:46:51.367Z,99707.78
2022-10-07T07:49:21.114Z,99528.47
2022-10-07T07:51:48.974Z,99700.56
2022-10-07T07:54:23.024Z,99536.06
2022-10-07T07:56:49.908Z,99696.63
2022-10-07T07:59:19.439Z,99679.66
2022-10-07T08:01:48.833Z,99606.06
2022-10-07T08:04:16.575Z,99534.91
2022-10-07T08:06:43.793Z,99667.72
2022-10-07T08:09:30.434Z,99530.91
2022-10-07T08:11:58.166Z,99550.22
2022-10-07T08:14:25.833Z,99651.44
2022-10-07T08:16:56.260Z,99681.13
2022-10-07T08:19:24.343Z,99682.94
2022-10-07T08:21:52.694Z,99679.28
2022-10-07T08:24:25.848Z,99716.16
2022-10-07T08:26:53.859Z,99680.00
2022-10-07T08:29:21.992Z,99711.75
2022-10-07T08:31:49.590Z,99662.00
2022-10-07T08:34:16.622Z,99640.00
2022-10-07T08:36:48.020Z,99666.44
2022-10-07T08:39:15.358Z,99672.06
2022-10-07T08:41:58.372Z,99623.06
2022-10-07T08:44:32.454Z,99637.81
2022-10-07T08:47:27.045Z,99665.28
2022-10-07T08:50:04.472Z,99651.13
2022-10-07T08:52:32.762Z,99655.38
2022-10-07T08:55:01.665Z,99648.72
2022-10-07T08:57:47.871Z,99652.28
2022-10-07T09:00:18.968Z,99646.50
2022-10-07T09:03:14.787Z,99496.09
2022-10-07T09:05:46.867Z,99545.50
2022-10-07T09:08:30.253Z,99457.06
2022-10-07T09:11:15.934Z,99619.22
2022-10-07T09:13:52.940Z,99534.28
2022-10-07T09:16:32.480Z,99485.63
2022-10-07T09:19:02.372Z,99501.69
2022-10-07T09:21:50.156Z,99627.06
2022-10-07T09:24:24.509Z,99629.41
2022-10-07T09:26:57.357Z,99592.72
2022-10-07T09:29:26.674Z,99589.91
2022-10-07T09:31:55.424Z,99558.94
2022-10-07T09:34:25.440Z,99537.97
2022-10-07T09:37:11.917Z,99573.22
2022-10-07T09:39:40.314Z,99496.00
2022-10-07T09:42:44.132Z,99636.41
2022-10-07T09:45:33.357Z,99627.09
2022-10-07T09:48:17.382Z,99577.81
2022-10-07T09:50:44.780Z,99641.00
2022-10-07T09:53:29.308Z,99614.81
2022-10-07T09:55:56.234Z,99594.94
2022-10-07T09:58:28.990Z,99591.81
2022-10-07T10:00:58.967Z,99601.97
2022-10-07T10:03:34.307Z,99548.38
2022-10-07T10:06:07.375Z,99458.34
2022-10-07T10:08:34.315Z,99586.50
2022-10-07T10:11:04.121Z,99614.28
2022-10-07T10:13:40.871Z,99615.91
2022-10-07T10:16:28.897Z,99600.91
2022-10-07T10:18:55.943Z,99629.16
2022-10-07T10:21:30.807Z,99564.66
2022-10-07T10:24:06.004Z,99557.31
2022-10-07T10:26:53.958Z,99605.34
2022-10-07T10:29:35.879Z,99613.91
2022-10-07T10:32:24.559Z,99588.50
2022-10-07T10:35:16.032Z,99581.25
2022-10-07T10:38:00.996Z,99576.25
2022-10-07T10:40:36.449Z,99585.75
2022-10-07T10:43:22.281Z,99566.00
2022-10-07T10:46:07.736Z,99563.59
2022-10-07T10:48:46.771Z,99551.47
2022-10-07T10:51:31.680Z,99544.59
2022-10-07T10:54:19.240Z,99546.44
2022-10-07T10:56:55.847Z,99513.03
2022-10-07T10:59:47.394Z,99498.84
2022-10-07T11:02:30.613Z,99540.13
2022-10-07T11:05:33.316Z,99563.97
2022-10-07T11:08:25.320Z,99532.94
2022-10-07T11:11:07.073Z,99528.66
2022-10-07T11:13:37.224Z,99522.44
2022-10-07T11:16:18.147Z,99354.63
2022-10-07T11:18:55.475Z,99360.50
2022-10-07T11:21:33.568Z,99369.13
2022-10-07T11:24:34.494Z,99503.59
2022-10-07T11:27:19.268Z,99505.66
2022-10-07T11:30:15.577Z,99503.84
2022-10-07T11:33:01.150Z,99506.06
2022-10-07T11:35:34.479Z,99372.22
2022-10-07T11:38:14.441Z,99451.75
2022-10-07T11:40:55.931Z,99490.31
2022-10-07T11:43:38.382Z,99425.78
2022-10-07T11:46:14.501Z,99350.13
2022-10-07T11:48:52.556Z,99477.22
2022-10-07T11:51:36.862Z,99425.19
2022-10-07T11:54:06.817Z,99401.38
2022-10-07T11:56:46.073Z,99465.47
2022-10-07T11:59:34.381Z,99406.44
2022-10-07T12:02:02.986Z,99339.09
2022-10-07T12:04:29.833Z,99463.75
2022-10-07T12:07:33.842Z,99449.06
2022-10-07T12:10:03.970Z,99456.91
2022-10-07T12:12:47.482Z,99443.72
2022-10-07T12:15:33.708Z,99439.09
2022-10-07T12:18:05.921Z,99439.31
2022-10-07T12:20:42.932Z,99445.19
2022-10-07T12:23:19.263Z,99362.50
2022-10-07T12:25:49.724Z,99323.00
2022-10-07T12:28:34.606Z,99435.19
2022-10-07T12:31:26.785Z,99273.94
2022-10-07T12:34:04.306Z,99452.81
2022-10-07T12:36:32.196Z,99439.63
2022-10-07T12:39:02.613Z,99423.34
2022-10-07T12:41:40.563Z,99411.97
2022-10-07T12:44:27.691Z,99419.06
2022-10-07T12:47:13.719Z,99454.28
2022-10-07T12:49:49.198Z,99397.78
2022-10-07T12:52:27.476Z,99407.81
2022-10-07T12:55:00.197Z,99399.00
2022-10-07T12:57:34.180Z,99293.59
2022-10-07T13:00:21.296Z,99254.19
2022-10-07T13:02:51.569Z,99414.03
2022-10-07T13:05:49.735Z,99394.50
2022-10-07T13:08:19.656Z,99390.94
2022-10-07T13:11:37.554Z,99379.47
2022-10-07T13:14:19.170Z,99385.06
2022-10-07T13:16:46.057Z,99384.34
2022-10-07T13:19:19.729Z,99390.69
2022-10-07T13:21:56.868Z,99214.38
2022-10-07T13:24:28.381Z,99356.69
2022-10-07T13:26:56.842Z,99361.34
2022-10-07T13:29:33.006Z,99352.19
2022-10-07T13:32:23.758Z,99328.22
2022-10-07T13:34:54.486Z,99244.75
2022-10-07T13:37:29.025Z,99345.44
2022-10-07T13:39:57.386Z,99267.84
2022-10-07T13:42:29.465Z,99215.59
2022-10-07T13:45:02.946Z,99345.59
2022-10-07T13:47:36.481Z,99366.00
2022-10-07T13:50:04.387Z,99189.13
2022-10-07T13:52:40.035Z,99324.06
2022-10-07T13:55:25.394Z,99331.53
2022-10-07T13:57:57.451Z,99322.72
2022-10-07T14:00:25.466Z,99247.19
2022-10-07T14:02:52.735Z,99309.28
2022-10-07T14:05:27.786Z,99314.91
2022-10-07T14:07:58.200Z,99318.94
2022-10-07T14:10:28.227Z,99290.56
2022-10-07T14:12:58.032Z,99187.44
2022-10-07T14:15:27.918Z,99289.50
2022-10-07T14:18:11.220Z,99217.63
2022-10-07T14:20:43.667Z,99262.84
2022-10-07T14:23:34.314Z,99290.69
2022-10-07T14:26:07.484Z,99133.78
2022-10-07T14:28:36.387Z,99145.53
2022-10-07T14:31:25.889Z,99282.13
2022-10-07T14:34:31.538Z,99276.28
2022-10-07T14:37:09.360Z,99270.44
2022-10-07T14:39:38.976Z,98877.47
2022-10-07T14:42:10.911Z,99155.78
2022-10-07T14:44:38.053Z,99263.56
2022-10-07T14:47:26.121Z,99176.06
2022-10-07T14:49:54.951Z,99171.63
2022-10-07T14:52:40.859Z,99303.03
2022-10-07T14:55:22.151Z,99262.34
2022-10-07T14:57:49.095Z,99238.13
2022-10-07T15:00:22.054Z,99261.25
2022-10-07T15:02:58.246Z,99281.28
2022-10-07T15:05:26.565Z,99148.31
2022-10-07T15:07:53.472Z,99255.25
2022-10-07T15:10:26.455Z,99267.72
2022-10-07T15:12:54.596Z,99292.59
2022-10-07T15:15:21.759Z,99260.38
2022-10-07T15:17:50.334Z,99261.34
2022-10-07T15:20:17.951Z,99271.94
2022-10-07T15:22:45.731Z,99118.94
2022-10-07T15:25:15.235Z,99269.69
2022-10-07T15:27:42.553Z,99112.28
2022-10-07T15:30:10.259Z,99222.22
2022-10-07T15:32:37.239Z,99228.91
2022-10-07T15:35:04.364Z,99277.41
2022-10-07T15:37:32.358Z,99270.16
2022-10-07T15:39:59.254Z,99265.13
2022-10-07T15:42:26.538Z,99207.97
2022-10-07T15:44:53.759Z,99103.22
2022-10-07T15:47:20.855Z,99255.53
2022-10-07T15:49:47.952Z,99194.91
2022-10-07T15:52:14.969Z,99227.88
2022-10-07T15:54:41.807Z,99174.59
2022-10-07T15:57:09.072Z,99265.38
2022-10-07T15:59:36.011Z,99205.66
2022-10-07T16:02:04.488Z,99256.41
2022-10-07T16:04:31.940Z,99182.53
2022-10-07T16:06:59.605Z,99093.06
2022-10-07T16:09:26.735Z,99241.97
2022-10-07T16:11:54.184Z,99248.75
2022-10-07T16:14:21.231Z,99279.88
2022-10-07T16:16:48.059Z,99156.50
2022-10-07T16:19:14.934Z,99102.13
2022-10-07T16:21:42.834Z,99180.66
2022-10-07T16:24:20.830Z,99262.72
2022-10-07T16:26:50.605Z,99234.47
2022-10-07T16:29:39.582Z,99260.38
2022-10-07T16:32:11.365Z,99098.28
2022-10-07T16:34:39.285Z,99261.56
2022-10-07T16:37:06.308Z,99231.41
2022-10-07T16:39:33.392Z,99268.34
2022-10-07T16:42:00.622Z,99193.19
2022-10-07T16:44:27.943Z,99249.78
2022-10-07T16:46:57.407Z,99258.66
2022-10-07T16:49:26.179Z,99253.47
2022-10-07T16:51:54.343Z,99144.75
2022-10-07T16:54:21.974Z,99059.47
2022-10-07T16:56:50.995Z,99088.75
2022-10-07T16:59:24.519Z,99078.28
2022-10-07T17:01:56.621Z,99190.38
2022-10-07T17:04:24.793Z,99190.19
2022-10-07T17:06:52.237Z,99244.25
2022-10-07T17:09:19.769Z,99143.84
2022-10-07T17:11:46.835Z,99249.53
2022-10-07T17:14:17.623Z,99239.81
2022-10-07T17:16:52.429Z,99266.00
2022-10-07T17:19:22.069Z,99233.03
2022-10-07T17:21:50.216Z,99244.38
2022-10-07T17:24:18.853Z,99203.13
2022-10-07T17:26:46.718Z,99232.56
2022-10-07T17:29:16.552Z,99145.28
2022-10-07T17:31:47.121Z,99231.94
2022-10-07T17:34:15.932Z,99204.53
2022-10-07T17:36:48.657Z,99228.25
2022-10-07T17:39:19.165Z,99232.25
2022-10-07T17:41:47.277Z,99230.91
2022-10-07T17:44:14.046Z,99193.25
2022-10-07T17:46:42.061Z,99223.81
2022-10-07T17:49:14.410Z,99207.97
2022-10-07T17:51:45.295Z,99210.28
2022-10-07T17:54:14.034Z,99045.41
2022-10-07T17:56:41.307Z,99210.28
2022-10-07T17:59:08.413Z,99137.97
2022-10-07T18:01:35.897Z,99201.09
2022-10-07T18:04:09.704Z,99172.56
2022-10-07T18:06:38.858Z,99056.78
2022-10-07T18:09:08.519Z,99208.63
2022-10-07T18:11:55.045Z,99067.06
2022-10-07T18:14:41.179Z,99213.41
2022-10-07T18:17:09.894Z,99165.88
2022-10-07T18:19:37.104Z,99128.41
2022-10-07T18:22:04.123Z,99155.44
2022-10-07T18:24:31.007Z,99013.66
2022-10-07T18:27:00.203Z,99205.66
2022-10-07T18:29:29.370Z,98997.19
2022-10-07T18:31:56.477Z,99158.91
2022-10-07T18:34:24.326Z,99184.66
2022-10-07T18:36:56.231Z,99182.91
2022-10-07T18:39:29.991Z,99018.16
2022-10-07T18:41:58.087Z,99199.00
2022-10-07T18:44:25.972Z,99190.63
2022-10-07T18:46:53.465Z,99198.84
2022-10-07T18:49:20.412Z,99176.63
2022-10-07T18:51:51.474Z,99104.69
2022-10-07T18:54:20.411Z,99130.91
2022-10-07T18:56:49.605Z,99144.66
2022-10-07T18:59:17.781Z,99147.44
2022-10-07T19:01:49.831Z,99174.25
2022-10-07T19:04:18.900Z,99020.03
2022-10-07T19:06:46.563Z,99034.53
2022-10-07T19:09:17.792Z,99131.69
2022-10-07T19:11:45.385Z,99208.09
2022-10-07T19:14:12.986Z,99183.03
2022-10-07T19:16:49.337Z,99039.31
2022-10-07T19:19:17.618Z,99063.94
2022-10-07T19:21:47.456Z,99016.75
2022-10-07T19:24:15.881Z,99197.03
2022-10-07T19:26:45.858Z,99173.34
2022-10-07T19:29:14.160Z,99173.03
2022-10-07T19:31:48.653Z,99183.03
2022-10-07T19:34:22.463Z,99193.84
2022-10-07T19:36:51.729Z,99181.56
2022-10-07T19:39:22.012Z,99167.78
2022-10-07T19:41:51.189Z,99173.03
2022-10-07T19:44:18.596Z,99165.34
2022-10-07T19:46:45.718Z,99161.81
2022-10-07T19:49:12.596Z,99143.56
2022-10-07T19:51:40.511Z,99191.31
2022-10-07T19:54:10.832Z,99150.69
2022-10-07T19:56:40.843Z,98998.00
2022-10-07T19:59:10.323Z,99170.50
2022-10-07T20:01:42.032Z,98999.25
2022-10-07T20:04:13.481Z,99171.41
2022-10-07T20:06:41.108Z,98972.03
2022-10-07T20:09:11.141Z,99175.16
2022-10-07T20:11:38.029Z,99165.84
2022-10-07T20:14:06.051Z,99137.91
2022-10-07T20:16:34.356Z,99135.63
2022-10-07T20:19:05.792Z,99109.28
2022-10-07T20:21:35.744Z,99168.75
2022-10-07T20:24:04.251Z,99171.59
2022-10-07T20:26:33.864Z,99147.44
2022-10-07T20:29:02.856Z,98975.09
2022-10-07T20:31:33.243Z,99075.94
2022-10-07T20:34:01.596Z,99062.50
2022-10-07T20:36:31.650Z,99054.44
2022-10-07T20:39:19.276Z,98981.81
2022-10-07T20:42:09.276Z,98975.06
2022-10-07T20:44:39.501Z,99174.88
2022-10-07T20:47:07.866Z,99038.91
2022-10-07T20:49:37.198Z,99150.13
2022-10-07T20:52:29.414Z,98964.56
2022-10-07T20:54:56.292Z,99153.03
2022-10-07T20:57:26.041Z,99131.28
2022-10-07T20:59:53.674Z,99065.88
2022-10-07T21:02:22.032Z,99098.50
2022-10-07T21:04:49.317Z,99113.75
2022-10-07T21:07:17.928Z,99060.13
2022-10-07T21:09:45.062Z,99128.16
2022-10-07T21:12:15.183Z,98967.13
2022-10-07T21:14:43.236Z,99060.88
2022-10-07T21:17:11.094Z,99125.72
2022-10-07T21:19:37.969Z,98966.75
2022-10-07T21:22:05.960Z,99113.84
2022-10-07T21:24:35.677Z,98956.75
2022-10-07T21:27:07.302Z,99159.88
2022-10-07T21:29:40.155Z,99162.38
2022-10-07T21:32:09.473Z,98992.56
2022-10-07T21:34:37.053Z,99108.69
2022-10-07T21:37:04.766Z,99089.34
2022-10-07T21:39:32.049Z,99083.63
2022-10-07T21:41:59.261Z,98948.34
2022-10-07T21:44:27.455Z,99098.66
2022-10-07T21:46:54.499Z,99071.25
2022-10-07T21:49:21.294Z,99059.88
2022-10-07T21:51:48.184Z,98946.16
2022-10-07T21:54:15.517Z,98933.47
2022-10-07T21:56:45.139Z,98931.97
2022-10-07T21:59:12.546Z,99063.94
2022-10-07T22:01:39.454Z,98929.66
2022-10-07T22:04:08.037Z,98933.53
2022-10-07T22:06:53.647Z,99049.22
2022-10-07T22:09:21.380Z,99093.84
2022-10-07T22:11:50.247Z,98961.56
2022-10-07T22:14:19.126Z,99082.50
2022-10-07T22:16:49.775Z,99002.66
2022-10-07T22:19:17.617Z,98915.34
2022-10-07T22:21:45.671Z,99105.81
2022-10-07T22:24:12.965Z,98910.50
2022-10-07T22:26:43.731Z,99052.69
2022-10-07T22:29:11.099Z,98900.91
2022-10-07T22:31:37.973Z,99077.91
2022-10-07T22:34:05.882Z,99001.53
2022-10-07T22:36:33.017Z,98924.13
2022-10-07T22:39:00.119Z,99042.88
2022-10-07T22:41:27.962Z,99006.22
2022-10-07T22:43:55.190Z,98914.09
2022-10-07T22:46:27.367Z,99042.03
2022-10-07T22:48:56.454Z,99023.44
2022-10-07T22:51:26.900Z,98873.75
2022-10-07T22:53:55.248Z,99032.16
2022-10-07T22:56:23.754Z,98994.25
2022-10-07T22:58:57.935Z,99018.97
2022-10-07T23:01:25.808Z,98928.13
2022-10-07T23:03:52.929Z,98868.56
2022-10-07T23:06:20.015Z,98914.00
2022-10-07T23:08:48.255Z,99060.34
2022-10-07T23:11:18.975Z,99066.09
2022-10-07T23:13:46.173Z,98854.59
2022-10-07T23:16:15.676Z,99043.97
2022-10-07T23:18:44.898Z,99047.84
2022-10-07T23:21:26.256Z,98868.81
2022-10-07T23:24:04.356Z,98871.94
2022-10-07T23:26:33.462Z,99031.22
2022-10-07T23:29:00.951Z,99011.47
2022-10-07T23:31:29.543Z,98846.09
2022-10-07T23:33:57.301Z,99042.59
2022-10-07T23:36:25.391Z,99044.28
2022-10-07T23:38:53.148Z,98854.56
2022-10-07T23:41:22.476Z,98871.72
2022-10-07T23:43:50.661Z,98885.94
2022-10-07T23:46:18.918Z,99059.78
2022-10-07T23:48:47.025Z,98925.41
2022-10-07T23:51:16.310Z,98958.28
2022-10-07T23:53:43.089Z,98879.09
2022-10-07T23:56:10.224Z,98970.13
2022-10-07T23:58:37.624Z,98845.91
